createdAt,value
2023-04-14T00:00:22.700Z,94210.00
2023-04-14T00:01:22.734Z,94212.00
2023-04-14T00:02:22.875Z,94206.00
2023-04-14T00:03:23.063Z,94206.00
2023-04-14T00:04:23.021Z,94204.00
2023-04-14T00:05:22.974Z,94200.00
2023-04-14T00:06:22.922Z,94202.00
2023-04-14T00:07:22.958Z,94202.00
2023-04-14T00:08:23.016Z,94198.00
2023-04-14T00:09:23.055Z,94200.00
2023-04-14T00:10:23.132Z,94200.00
2023-04-14T00:11:23.170Z,94198.00
2023-04-14T00:12:23.192Z,94200.00
2023-04-14T00:13:23.272Z,94200.00
2023-04-14T00:14:23.296Z,94200.00
2023-04-14T00:15:23.363Z,94202.00
2023-04-14T00:16:23.467Z,94200.00
2023-04-14T00:17:23.471Z,94202.00
2023-04-14T00:18:23.518Z,94200.00
2023-04-14T00:19:23.585Z,94198.00
2023-04-14T00:20:23.638Z,94200.00
2023-04-14T00:21:23.685Z,94198.00
2023-04-14T00:22:23.746Z,94198.00
2023-04-14T00:23:23.798Z,94198.00
2023-04-14T00:24:23.849Z,94195.00
2023-04-14T00:25:23.898Z,94193.00
2023-04-14T00:26:23.952Z,94193.00
2023-04-14T00:27:24.013Z,94193.00
2023-04-14T00:28:24.059Z,94191.00
2023-04-14T00:29:24.140Z,94191.00
2023-04-14T00:30:24.179Z,94193.00
2023-04-14T00:31:24.275Z,94191.00
2023-04-14T00:32:24.307Z,94191.00
2023-04-14T00:33:24.350Z,94189.00
2023-04-14T00:34:24.395Z,94189.00
2023-04-14T00:35:24.456Z,94191.00
2023-04-14T00:36:24.507Z,94191.00
2023-04-14T00:37:24.582Z,94195.00
2023-04-14T00:38:24.625Z,94193.00
2023-04-14T00:39:24.693Z,94195.00
2023-04-14T00:40:24.752Z,94193.00
2023-04-14T00:41:24.809Z,94195.00
2023-04-14T00:42:24.865Z,94195.00
2023-04-14T00:43:24.932Z,94195.00
2023-04-14T00:44:24.984Z,94198.00
2023-04-14T00:45:25.065Z,94198.00
2023-04-14T00:46:25.128Z,94195.00
2023-04-14T00:47:25.203Z,94195.00
2023-04-14T00:48:25.218Z,94197.00
2023-04-14T00:49:25.278Z,94195.00
2023-04-14T00:50:25.335Z,94193.00
2023-04-14T00:51:25.404Z,94191.00
2023-04-14T00:52:25.468Z,94191.00
2023-04-14T00:53:25.518Z,94189.00
2023-04-14T00:54:25.584Z,94187.00
2023-04-14T00:55:25.640Z,94185.00
2023-04-14T00:56:25.690Z,94183.00
2023-04-14T00:57:25.737Z,94183.00
2023-04-14T00:58:25.802Z,94183.00
2023-04-14T00:59:25.872Z,94185.00
2023-04-14T01:00:25.919Z,94185.00
2023-04-14T01:01:26.036Z,94185.00
2023-04-14T01:02:26.298Z,94187.00
2023-04-14T01:03:26.205Z,94185.00
2023-04-14T01:04:36.719Z,94187.00
2023-04-14T01:05:26.271Z,94187.00
2023-04-14T01:06:26.175Z,94185.00
2023-04-14T01:07:26.186Z,94187.00
2023-04-14T01:08:26.196Z,94191.00
2023-04-14T01:09:26.207Z,94191.00
2023-04-14T01:10:26.213Z,94189.00
2023-04-14T01:11:26.232Z,94193.00
2023-04-14T01:12:26.227Z,94193.00
2023-04-14T01:13:26.228Z,94198.00
2023-04-14T01:14:26.240Z,94200.00
2023-04-14T01:15:26.258Z,94200.00
2023-04-14T01:16:26.300Z,94202.00
2023-04-14T01:17:26.318Z,94200.00
2023-04-14T01:18:26.284Z,94198.00
2023-04-14T01:19:26.281Z,94198.00
2023-04-14T01:20:26.290Z,94197.00
2023-04-14T01:21:26.306Z,94197.00
2023-04-14T01:22:26.322Z,94195.00
2023-04-14T01:23:26.330Z,94193.00
2023-04-14T01:24:26.337Z,94193.00
2023-04-14T01:25:26.357Z,94193.00
2023-04-14T01:26:26.364Z,94189.00
2023-04-14T01:27:26.373Z,94189.00
2023-04-14T01:28:26.383Z,94191.00
2023-04-14T01:29:26.403Z,94187.00
2023-04-14T01:30:26.411Z,94185.00
2023-04-14T01:31:26.518Z,94187.00
2023-04-14T01:32:26.470Z,94185.00
2023-04-14T01:33:26.509Z,94187.00
2023-04-14T01:34:26.545Z,94189.00
2023-04-14T01:35:26.601Z,94187.00
2023-04-14T01:36:26.675Z,94185.00
2023-04-14T01:37:26.729Z,94185.00
2023-04-14T01:38:26.800Z,94185.00
2023-04-14T01:39:26.858Z,94183.00
2023-04-14T01:40:26.920Z,94183.00
2023-04-14T01:41:26.971Z,94179.00
2023-04-14T01:42:27.038Z,94183.00
2023-04-14T01:43:27.106Z,94179.00
2023-04-14T01:44:27.162Z,94173.00
2023-04-14T01:45:27.268Z,94177.00
2023-04-14T01:46:27.288Z,94173.00
2023-04-14T01:47:27.374Z,94163.00
2023-04-14T01:48:27.405Z,94161.00
2023-04-14T01:49:27.529Z,94151.00
2023-04-14T01:50:27.526Z,94148.00
2023-04-14T01:51:27.583Z,94148.00
2023-04-14T01:52:27.655Z,94148.00
2023-04-14T01:53:27.722Z,94148.00
2023-04-14T01:54:27.782Z,94148.00
2023-04-14T01:55:27.839Z,94146.00
2023-04-14T01:56:27.882Z,94142.00
2023-04-14T01:57:27.941Z,94138.00
2023-04-14T01:58:28.002Z,94130.00
2023-04-14T01:59:28.069Z,94126.00
2023-04-14T02:00:28.146Z,94120.00
2023-04-14T02:01:28.229Z,94110.00
2023-04-14T02:02:28.415Z,94108.00
2023-04-14T02:03:28.401Z,94106.00
2023-04-14T02:04:28.390Z,94110.00
2023-04-14T02:05:28.476Z,94112.00
2023-04-14T02:06:28.512Z,94120.00
2023-04-14T02:07:28.606Z,94124.00
2023-04-14T02:08:28.654Z,94126.00
2023-04-14T02:09:28.701Z,94124.00
2023-04-14T02:10:28.771Z,94122.00
2023-04-14T02:11:28.825Z,94120.00
2023-04-14T02:12:28.886Z,94112.00
2023-04-14T02:13:28.953Z,94110.00
2023-04-14T02:14:29.008Z,94108.00
2023-04-14T02:15:29.073Z,94108.00
2023-04-14T02:16:29.185Z,94110.00
2023-04-14T02:17:29.259Z,94120.00
2023-04-14T02:18:29.261Z,94128.00
2023-04-14T02:19:29.320Z,94132.00
2023-04-14T02:20:29.394Z,94138.00
2023-04-14T02:21:29.457Z,94142.00
2023-04-14T02:22:29.488Z,94148.00
2023-04-14T02:23:29.553Z,94150.00
2023-04-14T02:24:29.601Z,94151.00
2023-04-14T02:25:29.672Z,94151.00
2023-04-14T02:26:29.715Z,94153.00
2023-04-14T02:27:29.772Z,94153.00
2023-04-14T02:28:29.848Z,94151.00
2023-04-14T02:29:29.888Z,94153.00
2023-04-14T02:30:30.001Z,94153.00
2023-04-14T02:31:30.007Z,94151.00
2023-04-14T02:32:30.101Z,94155.00
2023-04-14T02:33:30.127Z,94153.00
2023-04-14T02:34:30.188Z,94155.00
2023-04-14T02:35:30.257Z,94155.00
2023-04-14T02:36:30.305Z,94157.00
2023-04-14T02:37:30.392Z,94161.00
2023-04-14T02:38:30.429Z,94159.00
2023-04-14T02:39:30.485Z,94159.00
2023-04-14T02:40:30.548Z,94159.00
2023-04-14T02:41:30.623Z,94159.00
2023-04-14T02:42:30.666Z,94157.00
2023-04-14T02:43:30.794Z,94153.00
2023-04-14T02:44:30.795Z,94150.00
2023-04-14T02:45:30.849Z,94148.00
2023-04-14T02:46:30.951Z,94146.00
2023-04-14T02:47:31.020Z,94148.00
2023-04-14T02:48:31.037Z,94148.00
2023-04-14T02:49:31.097Z,94151.00
2023-04-14T02:50:31.181Z,94151.00
2023-04-14T02:51:31.234Z,94150.00
2023-04-14T02:52:31.292Z,94150.00
2023-04-14T02:53:31.404Z,94148.00
2023-04-14T02:54:31.414Z,94151.00
2023-04-14T02:55:31.524Z,94150.00
2023-04-14T02:56:31.546Z,94146.00
2023-04-14T02:57:31.609Z,94146.00
2023-04-14T02:58:31.672Z,94144.00
2023-04-14T02:59:31.751Z,94142.00
2023-04-14T03:00:31.811Z,94142.00
2023-04-14T03:01:31.924Z,94134.00
2023-04-14T03:02:32.003Z,94134.00
2023-04-14T03:03:32.045Z,94130.00
2023-04-14T03:04:32.134Z,94128.00
2023-04-14T03:05:32.137Z,94122.00
2023-04-14T03:06:32.210Z,94108.00
2023-04-14T03:07:32.272Z,94106.00
2023-04-14T03:08:32.335Z,94104.00
2023-04-14T03:09:32.425Z,94100.00
2023-04-14T03:10:32.467Z,94100.00
2023-04-14T03:11:32.522Z,94102.00
2023-04-14T03:12:33.248Z,94100.00
2023-04-14T03:13:32.644Z,94100.00
2023-04-14T03:14:32.705Z,94100.00
2023-04-14T03:15:32.853Z,94098.00
2023-04-14T03:16:32.869Z,94098.00
2023-04-14T03:17:32.936Z,94098.00
2023-04-14T03:18:32.963Z,94097.00
2023-04-14T03:19:33.039Z,94095.00
2023-04-14T03:20:33.087Z,94095.00
2023-04-14T03:21:33.154Z,94095.00
2023-04-14T03:22:33.217Z,94093.00
2023-04-14T03:23:33.292Z,94095.00
2023-04-14T03:24:33.347Z,94095.00
2023-04-14T03:25:33.429Z,94095.00
2023-04-14T03:26:33.479Z,94095.00
2023-04-14T03:27:33.529Z,94095.00
2023-04-14T03:28:35.554Z,94097.00
2023-04-14T03:29:33.603Z,94098.00
2023-04-14T03:30:33.619Z,94098.00
2023-04-14T03:31:33.693Z,94102.00
2023-04-14T03:32:33.662Z,94106.00
2023-04-14T03:33:33.658Z,94110.00
2023-04-14T03:34:33.681Z,94120.00
2023-04-14T03:35:33.693Z,94122.00
2023-04-14T03:36:33.718Z,94124.00
2023-04-14T03:37:33.734Z,94130.00
2023-04-14T03:38:33.753Z,94134.00
2023-04-14T03:39:33.769Z,94138.00
2023-04-14T03:40:33.784Z,94140.00
2023-04-14T03:41:33.841Z,94144.00
2023-04-14T03:42:33.807Z,94146.00
2023-04-14T03:43:33.816Z,94146.00
2023-04-14T03:44:33.834Z,94144.00
2023-04-14T03:45:33.854Z,94144.00
2023-04-14T03:46:33.904Z,94142.00
2023-04-14T03:47:33.906Z,94142.00
2023-04-14T03:48:33.896Z,94142.00
2023-04-14T03:49:33.937Z,94140.00
2023-04-14T03:50:34.022Z,94138.00
2023-04-14T03:51:34.080Z,94134.00
2023-04-14T03:52:34.143Z,94136.00
2023-04-14T03:53:34.220Z,94134.00
2023-04-14T03:54:34.286Z,94132.00
2023-04-14T03:55:34.350Z,94130.00
2023-04-14T03:56:34.413Z,94132.00
2023-04-14T03:57:34.512Z,94132.00
2023-04-14T03:58:34.550Z,94130.00
2023-04-14T03:59:34.632Z,94128.00
2023-04-14T04:00:34.672Z,94132.00
2023-04-14T04:01:34.763Z,94130.00
2023-04-14T04:02:34.960Z,94132.00
2023-04-14T04:03:35.085Z,94132.00
2023-04-14T04:04:35.050Z,94134.00
2023-04-14T04:05:35.009Z,94136.00
2023-04-14T04:06:35.061Z,94136.00
2023-04-14T04:07:35.133Z,94138.00
2023-04-14T04:08:35.200Z,94140.00
2023-04-14T04:09:35.261Z,94142.00
2023-04-14T04:10:35.322Z,94142.00
2023-04-14T04:11:35.409Z,94142.00
2023-04-14T04:12:35.480Z,94144.00
2023-04-14T04:13:35.559Z,94146.00
2023-04-14T04:14:37.806Z,94146.00
2023-04-14T04:15:35.617Z,94148.00
2023-04-14T04:16:35.687Z,94148.00
2023-04-14T04:17:35.716Z,94150.00
2023-04-14T04:18:35.656Z,94150.00
2023-04-14T04:19:35.678Z,94151.00
2023-04-14T04:20:35.707Z,94155.00
2023-04-14T04:21:35.726Z,94157.00
2023-04-14T04:22:35.717Z,94155.00
2023-04-14T04:23:35.727Z,94155.00
2023-04-14T04:24:35.743Z,94157.00
2023-04-14T04:25:35.755Z,94155.00
2023-04-14T04:26:36.481Z,94155.00
2023-04-14T04:27:35.769Z,94155.00
2023-04-14T04:28:35.785Z,94157.00
2023-04-14T04:29:35.813Z,94161.00
2023-04-14T04:30:35.808Z,94161.00
2023-04-14T04:31:35.842Z,94161.00
2023-04-14T04:32:35.869Z,94161.00
2023-04-14T04:33:35.843Z,94159.00
2023-04-14T04:34:35.852Z,94159.00
2023-04-14T04:35:35.882Z,94161.00
2023-04-14T04:36:35.907Z,94157.00
2023-04-14T04:37:35.995Z,94159.00
2023-04-14T04:38:36.032Z,94159.00
2023-04-14T04:39:36.104Z,94159.00
2023-04-14T04:40:36.173Z,94161.00
2023-04-14T04:41:36.235Z,94161.00
2023-04-14T04:42:36.307Z,94161.00
2023-04-14T04:43:36.386Z,94161.00
2023-04-14T04:44:36.448Z,94163.00
2023-04-14T04:45:36.548Z,94163.00
2023-04-14T04:46:36.705Z,94163.00
2023-04-14T04:47:36.744Z,94163.00
2023-04-14T04:48:36.705Z,94165.00
2023-04-14T04:49:36.856Z,94165.00
2023-04-14T04:50:36.872Z,94165.00
2023-04-14T04:51:36.908Z,94165.00
2023-04-14T04:52:36.979Z,94163.00
2023-04-14T04:53:37.051Z,94163.00
2023-04-14T04:54:37.123Z,94163.00
2023-04-14T04:55:37.199Z,94165.00
2023-04-14T04:56:37.260Z,94163.00
2023-04-14T04:57:37.333Z,94163.00
2023-04-14T04:58:37.400Z,94157.00
2023-04-14T04:59:38.349Z,94155.00
2023-04-14T05:00:37.553Z,94155.00
2023-04-14T05:01:37.658Z,94151.00
2023-04-14T05:02:37.809Z,94151.00
2023-04-14T05:03:37.778Z,94153.00
2023-04-14T05:04:37.895Z,94150.00
2023-04-14T05:05:37.897Z,94153.00
2023-04-14T05:06:37.964Z,94151.00
2023-04-14T05:07:38.037Z,94151.00
2023-04-14T05:08:38.105Z,94151.00
2023-04-14T05:09:38.169Z,94153.00
2023-04-14T05:10:38.242Z,94150.00
2023-04-14T05:11:38.314Z,94150.00
2023-04-14T05:12:38.398Z,94153.00
2023-04-14T05:13:38.497Z,94148.00
2023-04-14T05:14:38.536Z,94148.00
2023-04-14T05:15:38.611Z,94148.00
2023-04-14T05:16:38.670Z,94148.00
2023-04-14T05:17:38.870Z,94148.00
2023-04-14T05:18:38.816Z,94142.00
2023-04-14T05:19:38.884Z,94142.00
2023-04-14T05:20:38.965Z,94148.00
2023-04-14T05:21:39.027Z,94148.00
2023-04-14T05:22:39.101Z,94150.00
2023-04-14T05:23:39.179Z,94151.00
2023-04-14T05:24:39.246Z,94153.00
2023-04-14T05:25:39.809Z,94153.00
2023-04-14T05:27:38.407Z,94155.00
2023-04-14T05:28:39.417Z,94161.00
2023-04-14T05:29:39.438Z,94161.00
2023-04-14T05:30:39.803Z,94165.00
2023-04-14T05:31:39.894Z,94167.00
2023-04-14T05:32:39.492Z,94169.00
2023-04-14T05:33:39.519Z,94173.00
2023-04-14T05:34:39.517Z,94179.00
2023-04-14T05:35:39.517Z,94177.00
2023-04-14T05:36:39.807Z,94179.00
2023-04-14T05:37:39.555Z,94181.00
2023-04-14T05:38:39.558Z,94181.00
2023-04-14T05:39:39.575Z,94187.00
2023-04-14T05:40:39.815Z,94189.00
2023-04-14T05:41:39.606Z,94185.00
2023-04-14T05:42:39.614Z,94193.00
2023-04-14T05:43:39.817Z,94189.00
2023-04-14T05:44:39.669Z,94189.00
2023-04-14T05:45:39.662Z,94193.00
2023-04-14T05:46:39.945Z,94193.00
2023-04-14T05:47:39.821Z,94195.00
2023-04-14T05:48:39.818Z,94195.00
2023-04-14T05:49:39.779Z,94195.00
2023-04-14T05:50:39.782Z,94191.00
2023-04-14T05:51:39.792Z,94193.00
2023-04-14T05:52:39.852Z,94197.00
2023-04-14T05:53:40.341Z,94198.00
2023-04-14T05:54:40.890Z,94198.00
2023-04-14T05:55:40.337Z,94200.00
2023-04-14T05:56:43.189Z,94200.00
2023-04-14T05:57:43.193Z,94195.00
2023-04-14T05:58:40.341Z,94198.00
2023-04-14T05:59:40.063Z,94195.00
2023-04-14T06:00:40.329Z,94197.00
2023-04-14T06:01:40.387Z,94200.00
2023-04-14T06:02:40.665Z,94200.00
2023-04-14T06:03:40.738Z,94200.00
2023-04-14T06:04:40.408Z,94200.00
2023-04-14T06:05:40.321Z,94204.00
2023-04-14T06:06:40.483Z,94206.00
2023-04-14T06:07:40.188Z,94206.00
2023-04-14T06:08:40.133Z,94206.00
2023-04-14T06:09:40.166Z,94204.00
2023-04-14T06:10:41.171Z,94206.00
2023-04-14T06:11:43.585Z,94208.00
2023-04-14T06:12:41.235Z,94206.00
2023-04-14T06:13:40.176Z,94204.00
2023-04-14T06:14:40.177Z,94198.00
2023-04-14T06:15:48.840Z,94198.00
2023-04-14T06:16:40.366Z,94200.00
2023-04-14T06:17:40.274Z,94195.00
2023-04-14T06:18:40.223Z,94195.00
2023-04-14T06:19:40.236Z,94195.00
2023-04-14T06:20:41.236Z,94200.00
2023-04-14T06:21:40.296Z,94200.00
2023-04-14T06:22:40.281Z,94200.00
2023-04-14T06:23:40.283Z,94206.00
2023-04-14T06:24:40.300Z,94200.00
2023-04-14T06:25:40.343Z,94198.00
2023-04-14T06:26:40.342Z,94197.00
2023-04-14T06:27:40.327Z,94195.00
2023-04-14T06:28:41.480Z,94195.00
2023-04-14T06:29:40.344Z,94193.00
2023-04-14T06:30:40.358Z,94197.00
2023-04-14T06:31:40.413Z,94195.00
2023-04-14T06:32:40.406Z,94193.00
2023-04-14T06:33:40.845Z,94193.00
2023-04-14T06:34:40.375Z,94189.00
2023-04-14T06:35:40.387Z,94191.00
2023-04-14T06:36:40.845Z,94185.00
2023-04-14T06:37:40.429Z,94187.00
2023-04-14T06:38:40.409Z,94187.00
2023-04-14T06:39:40.421Z,94183.00
2023-04-14T06:40:40.423Z,94185.00
2023-04-14T06:41:40.437Z,94183.00
2023-04-14T06:42:40.436Z,94181.00
2023-04-14T06:43:40.437Z,94181.00
2023-04-14T06:44:40.861Z,94179.00
2023-04-14T06:45:40.477Z,94181.00
2023-04-14T06:46:44.138Z,94183.00
2023-04-14T06:47:41.533Z,94181.00
2023-04-14T06:48:47.882Z,94181.00
2023-04-14T06:49:41.111Z,94181.00
2023-04-14T06:50:41.188Z,94173.00
2023-04-14T06:51:40.856Z,94173.00
2023-04-14T06:52:43.713Z,94179.00
2023-04-14T06:53:40.540Z,94179.00
2023-04-14T06:54:40.523Z,94179.00
2023-04-14T06:55:40.852Z,94177.00
2023-04-14T06:56:40.569Z,94179.00
2023-04-14T06:57:40.589Z,94181.00
2023-04-14T06:58:40.660Z,94181.00
2023-04-14T06:59:40.625Z,94183.00
2023-04-14T07:00:40.862Z,94185.00
2023-04-14T07:01:40.689Z,94189.00
2023-04-14T07:02:40.760Z,94185.00
2023-04-14T07:03:40.676Z,94189.00
2023-04-14T07:04:40.786Z,94193.00
2023-04-14T07:05:40.863Z,94193.00
2023-04-14T07:06:40.858Z,94195.00
2023-04-14T07:07:40.741Z,94193.00
2023-04-14T07:08:40.812Z,94193.00
2023-04-14T07:09:40.888Z,94191.00
2023-04-14T07:10:40.978Z,94189.00
2023-04-14T07:11:40.790Z,94193.00
2023-04-14T07:12:40.821Z,94193.00
2023-04-14T07:13:41.085Z,94193.00
2023-04-14T07:14:41.148Z,94197.00
2023-04-14T07:15:40.846Z,94198.00
2023-04-14T07:16:40.842Z,94197.00
2023-04-14T07:17:40.866Z,94197.00
2023-04-14T07:18:40.864Z,94197.00
2023-04-14T07:19:40.886Z,94198.00
2023-04-14T07:20:40.883Z,94198.00
2023-04-14T07:21:40.890Z,94198.00
2023-04-14T07:22:41.375Z,94202.00
2023-04-14T07:23:40.900Z,94204.00
2023-04-14T07:24:41.469Z,94206.00
2023-04-14T07:25:41.902Z,94208.00
2023-04-14T07:26:41.359Z,94204.00
2023-04-14T07:27:49.773Z,94204.00
2023-04-14T07:28:41.082Z,94204.00
2023-04-14T07:29:41.084Z,94208.00
2023-04-14T07:30:41.102Z,94208.00
2023-04-14T07:31:42.434Z,94212.00
2023-04-14T07:32:41.128Z,94214.00
2023-04-14T07:33:41.113Z,94216.00
2023-04-14T07:34:41.116Z,94218.00
2023-04-14T07:35:48.242Z,94220.00
2023-04-14T07:36:41.163Z,94220.00
2023-04-14T07:37:41.365Z,94224.00
2023-04-14T07:38:41.148Z,94224.00
2023-04-14T07:39:41.176Z,94224.00
2023-04-14T07:40:41.420Z,94226.00
2023-04-14T07:41:41.179Z,94222.00
2023-04-14T07:42:41.183Z,94226.00
2023-04-14T07:43:41.175Z,94226.00
2023-04-14T07:44:41.368Z,94226.00
2023-04-14T07:45:41.184Z,94228.00
2023-04-14T07:46:41.457Z,94224.00
2023-04-14T07:47:41.237Z,94226.00
2023-04-14T07:48:41.205Z,94224.00
2023-04-14T07:49:41.368Z,94222.00
2023-04-14T07:50:41.236Z,94226.00
2023-04-14T07:51:41.234Z,94228.00
2023-04-14T07:52:41.291Z,94228.00
2023-04-14T07:53:41.400Z,94230.00
2023-04-14T07:54:41.262Z,94230.00
2023-04-14T07:55:41.316Z,94232.00
2023-04-14T07:56:41.404Z,94232.00
2023-04-14T07:57:41.304Z,94234.00
2023-04-14T07:58:41.329Z,94232.00
2023-04-14T07:59:40.313Z,94234.00
2023-04-14T08:00:41.328Z,94236.00
2023-04-14T08:01:41.944Z,94234.00
2023-04-14T08:02:41.440Z,94240.00
2023-04-14T08:03:43.747Z,94244.00
2023-04-14T08:04:41.394Z,94247.00
2023-04-14T08:05:41.430Z,94244.00
2023-04-14T08:06:41.874Z,94247.00
2023-04-14T08:07:41.414Z,94244.00
2023-04-14T08:08:41.421Z,94245.00
2023-04-14T08:09:41.439Z,94247.00
2023-04-14T08:10:41.447Z,94245.00
2023-04-14T08:11:42.204Z,94249.00
2023-04-14T08:12:41.510Z,94249.00
2023-04-14T08:13:42.382Z,94249.00
2023-04-14T08:14:41.876Z,94249.00
2023-04-14T08:15:41.543Z,94253.00
2023-04-14T08:16:41.723Z,94257.00
2023-04-14T08:17:41.935Z,94253.00
2023-04-14T08:18:41.700Z,94249.00
2023-04-14T08:19:41.766Z,94247.00
2023-04-14T08:20:45.022Z,94249.00
2023-04-14T08:21:41.846Z,94249.00
2023-04-14T08:22:41.842Z,94253.00
2023-04-14T08:23:41.876Z,94251.00
2023-04-14T08:24:41.903Z,94253.00
2023-04-14T08:25:41.876Z,94253.00
2023-04-14T08:26:41.901Z,94253.00
2023-04-14T08:27:41.894Z,94253.00
2023-04-14T08:28:41.925Z,94253.00
2023-04-14T08:29:42.394Z,94253.00
2023-04-14T08:30:42.386Z,94253.00
2023-04-14T08:31:41.945Z,94251.00
2023-04-14T08:32:42.464Z,94257.00
2023-04-14T08:33:41.907Z,94257.00
2023-04-14T08:35:38.528Z,94255.00
2023-04-14T08:35:42.980Z,94251.00
2023-04-14T08:36:41.879Z,94251.00
2023-04-14T08:37:41.893Z,94253.00
2023-04-14T08:38:41.929Z,94253.00
2023-04-14T08:39:42.389Z,94253.00
2023-04-14T08:40:41.890Z,94251.00
2023-04-14T08:41:41.898Z,94249.00
2023-04-14T08:42:41.906Z,94251.00
2023-04-14T08:43:42.917Z,94253.00
2023-04-14T08:44:42.409Z,94249.00
2023-04-14T08:45:42.009Z,94244.00
2023-04-14T08:46:41.964Z,94249.00
2023-04-14T08:47:42.068Z,94247.00
2023-04-14T08:48:42.400Z,94245.00
2023-04-14T08:49:42.185Z,94242.00
2023-04-14T08:50:42.583Z,94242.00
2023-04-14T08:51:42.323Z,94245.00
2023-04-14T08:52:43.005Z,94249.00
2023-04-14T08:53:42.947Z,94247.00
2023-04-14T08:54:42.500Z,94251.00
2023-04-14T08:55:43.269Z,94249.00
2023-04-14T08:56:42.545Z,94253.00
2023-04-14T08:57:42.556Z,94251.00
2023-04-14T08:58:42.593Z,94253.00
2023-04-14T08:59:42.946Z,94253.00
2023-04-14T09:00:46.034Z,94255.00
2023-04-14T09:01:42.919Z,94259.00
2023-04-14T09:02:42.903Z,94259.00
2023-04-14T09:03:43.846Z,94265.00
2023-04-14T09:04:42.892Z,94259.00
2023-04-14T09:05:42.873Z,94259.00
2023-04-14T09:06:42.927Z,94265.00
2023-04-14T09:07:42.887Z,94259.00
2023-04-14T09:08:42.875Z,94263.00
2023-04-14T09:09:42.899Z,94267.00
2023-04-14T09:10:43.207Z,94267.00
2023-04-14T09:11:42.917Z,94267.00
2023-04-14T09:12:42.906Z,94267.00
2023-04-14T09:13:42.943Z,94273.00
2023-04-14T09:14:43.182Z,94271.00
2023-04-14T09:15:43.417Z,94271.00
2023-04-14T09:16:43.096Z,94273.00
2023-04-14T09:17:43.067Z,94273.00
2023-04-14T09:18:43.194Z,94273.00
2023-04-14T09:20:35.171Z,94273.00
2023-04-14T09:20:43.199Z,94273.00
2023-04-14T09:21:51.512Z,94273.00
2023-04-14T09:22:43.033Z,94273.00
2023-04-14T09:23:43.048Z,94277.00
2023-04-14T09:24:43.344Z,94279.00
2023-04-14T09:25:43.410Z,94281.00
2023-04-14T09:26:43.428Z,94281.00
2023-04-14T09:27:43.496Z,94283.00
2023-04-14T09:28:43.902Z,94283.00
2023-04-14T09:29:43.063Z,94285.00
2023-04-14T09:30:43.423Z,94285.00
2023-04-14T09:31:43.512Z,94287.00
2023-04-14T09:32:43.130Z,94289.00
2023-04-14T09:33:43.332Z,94294.00
2023-04-14T09:34:46.264Z,94298.00
2023-04-14T09:35:43.433Z,94292.00
2023-04-14T09:36:43.076Z,94296.00
2023-04-14T09:37:43.089Z,94298.00
2023-04-14T09:38:43.455Z,94302.00
2023-04-14T09:39:43.059Z,94300.00
2023-04-14T09:40:43.501Z,94298.00
2023-04-14T09:41:43.074Z,94304.00
2023-04-14T09:42:44.410Z,94304.00
2023-04-14T09:43:43.063Z,94304.00
2023-04-14T09:44:43.088Z,94306.00
2023-04-14T09:45:43.535Z,94304.00
2023-04-14T09:46:44.290Z,94304.00
2023-04-14T09:47:43.328Z,94302.00
2023-04-14T09:48:43.351Z,94296.00
2023-04-14T09:49:43.389Z,94296.00
2023-04-14T09:50:43.922Z,94292.00
2023-04-14T09:51:43.534Z,94291.00
2023-04-14T09:52:43.616Z,94289.00
2023-04-14T09:53:44.700Z,94291.00
2023-04-14T09:54:43.666Z,94289.00
2023-04-14T09:55:44.911Z,94287.00
2023-04-14T09:56:43.923Z,94289.00
2023-04-14T09:57:43.685Z,94287.00
2023-04-14T09:58:44.697Z,94287.00
2023-04-14T09:59:43.669Z,94289.00
2023-04-14T10:00:43.731Z,94287.00
2023-04-14T10:01:47.166Z,94289.00
2023-04-14T10:02:44.041Z,94285.00
2023-04-14T10:03:43.843Z,94289.00
2023-04-14T10:04:43.847Z,94289.00
2023-04-14T10:05:43.971Z,94287.00
2023-04-14T10:06:43.799Z,94285.00
2023-04-14T10:07:43.816Z,94287.00
2023-04-14T10:08:43.924Z,94287.00
2023-04-14T10:09:43.795Z,94292.00
2023-04-14T10:10:43.795Z,94291.00
2023-04-14T10:11:43.783Z,94291.00
2023-04-14T10:12:43.947Z,94285.00
2023-04-14T10:13:43.821Z,94287.00
2023-04-14T10:14:43.831Z,94281.00
2023-04-14T10:15:43.995Z,94279.00
2023-04-14T10:16:43.818Z,94281.00
2023-04-14T10:17:43.943Z,94281.00
2023-04-14T10:18:43.839Z,94285.00
2023-04-14T10:19:43.802Z,94287.00
2023-04-14T10:20:43.951Z,94289.00
2023-04-14T10:21:43.811Z,94287.00
2023-04-14T10:22:43.868Z,94287.00
2023-04-14T10:23:43.932Z,94289.00
2023-04-14T10:24:44.425Z,94283.00
2023-04-14T10:25:44.011Z,94287.00
2023-04-14T10:26:44.933Z,94289.00
2023-04-14T10:27:45.118Z,94291.00
2023-04-14T10:28:44.169Z,94291.00
2023-04-14T10:29:44.210Z,94289.00
2023-04-14T10:30:44.246Z,94285.00
2023-04-14T10:31:44.361Z,94289.00
2023-04-14T10:32:44.924Z,94285.00
2023-04-14T10:33:44.398Z,94283.00
2023-04-14T10:34:44.423Z,94281.00
2023-04-14T10:35:44.959Z,94277.00
2023-04-14T10:36:44.494Z,94271.00
2023-04-14T10:37:44.931Z,94269.00
2023-04-14T10:38:44.539Z,94267.00
2023-04-14T10:39:44.583Z,94263.00
2023-04-14T10:40:44.934Z,94265.00
2023-04-14T10:41:44.753Z,94261.00
2023-04-14T10:42:44.946Z,94257.00
2023-04-14T10:43:44.902Z,94259.00
2023-04-14T10:44:44.986Z,94257.00
2023-04-14T10:45:45.449Z,94259.00
2023-04-14T10:46:45.450Z,94257.00
2023-04-14T10:47:45.199Z,94259.00
2023-04-14T10:48:45.359Z,94255.00
2023-04-14T10:49:45.349Z,94253.00
2023-04-14T10:50:45.345Z,94251.00
2023-04-14T10:51:45.919Z,94249.00
2023-04-14T10:52:46.020Z,94249.00
2023-04-14T10:53:45.519Z,94247.00
2023-04-14T10:54:45.557Z,94247.00
2023-04-14T10:55:51.763Z,94245.00
2023-04-14T10:56:45.592Z,94245.00
2023-04-14T10:57:45.959Z,94247.00
2023-04-14T10:58:45.609Z,94247.00
2023-04-14T10:59:45.625Z,94244.00
2023-04-14T11:00:46.089Z,94244.00
2023-04-14T11:01:45.750Z,94240.00
2023-04-14T11:02:46.116Z,94244.00
2023-04-14T11:03:45.840Z,94244.00
2023-04-14T11:04:45.676Z,94247.00
2023-04-14T11:05:45.953Z,94245.00
2023-04-14T11:06:45.708Z,94245.00
2023-04-14T11:07:45.718Z,94244.00
2023-04-14T11:08:45.749Z,94242.00
2023-04-14T11:09:45.735Z,94244.00
2023-04-14T11:10:45.951Z,94247.00
2023-04-14T11:11:46.003Z,94242.00
2023-04-14T11:12:45.774Z,94242.00
2023-04-14T11:13:45.794Z,94242.00
2023-04-14T11:14:45.830Z,94236.00
2023-04-14T11:15:45.811Z,94242.00
2023-04-14T11:16:58.818Z,94236.00
2023-04-14T11:17:46.140Z,94236.00
2023-04-14T11:18:46.460Z,94234.00
2023-04-14T11:19:45.832Z,94234.00
2023-04-14T11:20:45.863Z,94232.00
2023-04-14T11:21:45.913Z,94230.00
2023-04-14T11:22:46.026Z,94230.00
2023-04-14T11:23:45.858Z,94230.00
2023-04-14T11:24:45.891Z,94234.00
2023-04-14T11:25:45.954Z,94232.00
2023-04-14T11:26:45.869Z,94234.00
2023-04-14T11:27:45.874Z,94234.00
2023-04-14T11:28:45.880Z,94230.00
2023-04-14T11:29:45.885Z,94226.00
2023-04-14T11:30:45.949Z,94222.00
2023-04-14T11:31:45.985Z,94218.00
2023-04-14T11:32:46.065Z,94216.00
2023-04-14T11:33:46.100Z,94216.00
2023-04-14T11:34:46.166Z,94218.00
2023-04-14T11:35:46.447Z,94218.00
2023-04-14T11:36:46.288Z,94214.00
2023-04-14T11:37:46.352Z,94212.00
2023-04-14T11:38:46.461Z,94214.00
2023-04-14T11:39:46.504Z,94212.00
2023-04-14T11:40:46.592Z,94210.00
2023-04-14T11:41:46.611Z,94212.00
2023-04-14T11:42:46.821Z,94208.00
2023-04-14T11:43:47.066Z,94206.00
2023-04-14T11:44:47.208Z,94210.00
2023-04-14T11:45:46.886Z,94210.00